地図

経路データ

SID SEASON NUMBER BASIN SUBBASIN NAME ISO_TIME NATURE LAT LON WMO_WIND WMO_PRES WMO_AGENCY TRACK_TYPE DIST2LAND LANDFALL IFLAG USA_AGENCY USA_ATCF_ID USA_LAT USA_LON USA_RECORD USA_STATUS USA_WIND USA_PRES USA_SSHS USA_R34_NE USA_R34_SE USA_R34_SW USA_R34_NW USA_R50_NE USA_R50_SE USA_R50_SW USA_R50_NW USA_R64_NE USA_R64_SE USA_R64_SW USA_R64_NW USA_POCI USA_ROCI USA_RMW USA_EYE TOKYO_LAT TOKYO_LON TOKYO_GRADE TOKYO_WIND TOKYO_PRES TOKYO_R50_DIR TOKYO_R50_LONG TOKYO_R50_SHORT TOKYO_R30_DIR TOKYO_R30_LONG TOKYO_R30_SHORT TOKYO_LAND CMA_LAT CMA_LON CMA_CAT CMA_WIND CMA_PRES HKO_LAT HKO_LON HKO_CAT HKO_WIND HKO_PRES NEWDELHI_LAT NEWDELHI_LON NEWDELHI_GRADE NEWDELHI_WIND NEWDELHI_PRES NEWDELHI_CI NEWDELHI_DP NEWDELHI_POCI REUNION_LAT REUNION_LON REUNION_TYPE REUNION_WIND REUNION_PRES REUNION_TNUM REUNION_CI REUNION_RMW REUNION_R34_NE REUNION_R34_SE REUNION_R34_SW REUNION_R34_NW REUNION_R50_NE REUNION_R50_SE REUNION_R50_SW REUNION_R50_NW REUNION_R64_NE REUNION_R64_SE REUNION_R64_SW REUNION_R64_NW BOM_LAT BOM_LON BOM_TYPE BOM_WIND BOM_PRES BOM_TNUM BOM_CI BOM_RMW BOM_R34_NE BOM_R34_SE BOM_R34_SW BOM_R34_NW BOM_R50_NE BOM_R50_SE BOM_R50_SW BOM_R50_NW BOM_R64_NE BOM_R64_SE BOM_R64_SW BOM_R64_NW BOM_ROCI BOM_POCI BOM_EYE BOM_POS_METHOD BOM_PRES_METHOD NADI_LAT NADI_LON NADI_CAT NADI_WIND NADI_PRES WELLINGTON_LAT WELLINGTON_LON WELLINGTON_WIND WELLINGTON_PRES DS824_LAT DS824_LON DS824_STAGE DS824_WIND DS824_PRES TD9636_LAT TD9636_LON TD9636_STAGE TD9636_WIND TD9636_PRES TD9635_LAT TD9635_LON TD9635_WIND TD9635_PRES TD9635_ROCI NEUMANN_LAT NEUMANN_LON NEUMANN_CLASS NEUMANN_WIND NEUMANN_PRES MLC_LAT MLC_LON MLC_CLASS MLC_WIND MLC_PRES USA_GUST BOM_GUST BOM_GUST_PER REUNION_GUST REUNION_GUST_PER USA_SEAHGT USA_SEARAD_NE USA_SEARAD_SE USA_SEARAD_SW USA_SEARAD_NW STORM_SPEED STORM_DIR
1946014S09069 1946 4 SI MM NOT_NAMED 1946-01-14 06:00:00 NR -9.20000 68.5000 reunion main 1683 1683 _____O________ -1 -9.20000 68.5000 99 9.90000 0 0
1946014S09069 1946 4 SI MM NOT_NAMED 1946-01-14 09:00:00 NR -9.17761 68.5108 main 1683 1683 _____P________ -1 -9.17761 68.5108 99 0 42
1946014S09069 1946 4 SI MM NOT_NAMED 1946-01-14 12:00:00 NR -9.17045 68.5159 main 1683 1683 _____P________ -1 -9.17045 68.5159 99 0 0
1946014S09069 1946 4 SI MM NOT_NAMED 1946-01-14 15:00:00 NR -9.19374 68.5094 main 1683 1675 _____P________ -1 -9.19374 68.5094 99 1 198
1946014S09069 1946 4 SI MM NOT_NAMED 1946-01-14 18:00:00 NR -9.26269 68.4855 main 1675 1659 _____P________ -1 -9.26269 68.4855 99 2 198
1946014S09069 1946 4 SI MM NOT_NAMED 1946-01-14 21:00:00 NR -9.39252 68.4386 main 1659 1643 _____P________ -1 -9.39252 68.4386 99 4 199
1946014S09069 1946 4 SI MM NOT_NAMED 1946-01-15 00:00:00 NR -9.59848 68.3627 main 1643 1611 _____P________ -1 -9.59848 68.3627 99 5 200
1946014S09069 1946 4 SI MM NOT_NAMED 1946-01-15 03:00:00 NR -9.89587 68.2518 main 1611 1571 _____P________ -1 -9.89587 68.2518 99 7 194
1946014S09069 1946 4 SI MM NOT_NAMED 1946-01-15 06:00:00 TS -10.3000 68.1857 reunion main 1571 1516 O____O___OO___ jtwc_sh SH071946 -10.3000 68.3000 -1 -10.3000 68.1000 99 9.90000 -10.3000 68.3000 TC 25 -10.3000 68.3000 7 10 195
1946014S09069 1946 4 SI MM NOT_NAMED 1946-01-15 09:00:00 TS -10.8633 67.9931 main 1508 1454 P____P___PP___ SH071946 -10.8925 68.0502 -1 -10.8194 67.9036 99 -10.8925 68.0502 TC 25 -10.8924 68.0581 7 13 199
1946014S09069 1946 4 SI MM NOT_NAMED 1946-01-15 12:00:00 TS -11.4795 67.7627 main 1446 1376 O____P___OP___ jtwc_sh SH071946 -11.5000 67.8000 -1 -11.4351 67.6692 99 -11.5000 67.8000 TC 25 -11.4978 67.8127 7 14 200
1946014S09069 1946 4 SI MM NOT_NAMED 1946-01-15 15:00:00 TS -12.1301 67.5167 main 1376 1309 P____P___PP___ SH071946 -12.1350 67.5499 -1 -12.1212 67.4063 99 -12.1350 67.5499 TC 25 -12.1293 67.5610 7 14 200
1946014S09069 1946 4 SI MM NOT_NAMED 1946-01-15 18:00:00 TS -12.8130 67.2560 main 1309 1234 O____P___OO___ jtwc_sh SH071946 -12.8000 67.3000 -1 -12.8519 67.1241 99 -12.8000 67.3000 TC 25 -12.8000 67.3000 7 15 200
1946014S09069 1946 4 SI MM NOT_NAMED 1946-01-15 21:00:00 TS -13.5252 66.9939 main 1234 1161 P____P___PP___ SH071946 -13.4925 67.0573 -1 -13.6010 66.8325 99 -13.4925 67.0573 TC 25 -13.5149 67.0283 7 15 200
1946014S09069 1946 4 SI MM NOT_NAMED 1946-01-16 00:00:00 TS -14.2469 66.7229 main 1161 1090 O____P___OP___ jtwc_sh SH071946 -14.2000 66.8000 -1 -14.3425 66.5412 99 -14.2000 66.8000 TC 25 -14.2449 66.7503 7 16 201
1946014S09069 1946 4 SI MM NOT_NAMED 1946-01-16 03:00:00 TS -14.9658 66.4331 main 1084 1030 P____P___PP___ SH071946 -14.9300 66.5001 -1 -15.0508 66.2602 99 -14.9300 66.5001 TC 30 -14.9525 66.4721 7 15 202
1946014S09069 1946 4 SI MM NOT_NAMED 1946-01-16 06:00:00 TS -15.6250 66.1500 reunion main 1030 975 O____O___OO___ jtwc_sh SH071946 -15.6000 66.2000 -1 -15.7000 66.0000 99 9.90000 -15.6000 66.2000 TC 35 -15.6000 66.2000 2 13 203
1946014S09069 1946 4 SI MM NOT_NAMED 1946-01-16 09:00:00 TS -16.1573 65.9133 main 969 930 P____P___PP___ SH071946 -16.1374 65.9422 -1 -16.2027 65.8227 99 -16.1374 65.9422 TC 35 -16.1516 65.9461 2 11 204
1946014S09069 1946 4 SI MM NOT_NAMED 1946-01-16 12:00:00 TS -16.6245 65.6912 main 930 891 O____P___OP___ jtwc_sh SH071946 -16.6000 65.7000 -1 -16.6583 65.6659 99 -16.6000 65.7000 TC 35 -16.6396 65.6991 2 10 205
1946014S09069 1946 4 SI MM NOT_NAMED 1946-01-16 15:00:00 TS -17.0717 65.4722 main 886 848 P____P___PP___ SH071946 -17.0649 65.4573 -1 -17.0739 65.5215 99 -17.0649 65.4573 TC 35 -17.0828 65.4525 2 10 206
1946014S09069 1946 4 SI MM NOT_NAMED 1946-01-16 18:00:00 TS -17.4892 65.2454 main 839 802 O____P___OO___ jtwc_sh SH071946 -17.5000 65.2000 -1 -17.4567 65.3814 99 -17.5000 65.2000 TC 35 -17.5000 65.2000 2 9 209
1946014S09069 1946 4 SI MM NOT_NAMED 1946-01-16 21:00:00 TS -17.8916 64.9903 main 802 757 P____P___PP___ SH071946 -17.9075 64.8999 -1 -17.8137 65.2376 99 -17.9075 64.8999 TC 35 -17.9378 64.9240 2 9 212
1946014S09069 1946 4 SI MM NOT_NAMED 1946-01-17 00:00:00 TS -18.2761 64.7310 main 757 727 O____P___OP___ jtwc_sh SH071946 -18.3000 64.6000 -1 -18.1519 65.0816 99 -18.3000 64.6000 TC 35 -18.3525 64.6424 2 9 212
1946014S09069 1946 4 SI MM NOT_NAMED 1946-01-17 03:00:00 TS -18.6623 64.4887 main 724 695 P____P___PP___ SH071946 -18.7149 64.3424 -1 -18.4784 64.9052 99 -18.7149 64.3424 TC 50 -18.7409 64.3646 2 9 211
1946014S09069 1946 4 SI MM NOT_NAMED 1946-01-17 06:00:00 TS -19.0250 64.2500 reunion main 695 658 O____O___OO___ jtwc_sh SH071946 -19.1000 64.1000 -1 -18.8000 64.7000 99 9.90000 -19.1000 64.1000 TC 65 -19.1000 64.1000 4 8 214
1946014S09069 1946 4 SI MM NOT_NAMED 1946-01-17 09:00:00 TS -19.3504 63.9964 main 656 631 P____P___PP___ SH071946 -19.4150 63.8424 -1 -19.1351 64.4367 99 -19.4150 63.8424 TC 65 -19.4366 63.8641 4 8 217
1946014S09069 1946 4 SI MM NOT_NAMED 1946-01-17 12:00:00 TS -19.6507 63.7470 main 620 596 O____P___OP___ jtwc_sh SH071946 -19.7000 63.6000 -1 -19.4580 64.1461 99 -19.7000 63.6000 TC 65 -19.7447 63.6418 4 8 217
1946014S09069 1946 4 SI MM NOT_NAMED 1946-01-17 15:00:00 TS -19.9547 63.5104 main 595 573 P____P___PP___ SH071946 -20.0074 63.3924 -1 -19.7734 63.8332 99 -20.0074 63.3924 TC 65 -20.0304 63.4236 4 7 217
1946014S09069 1946 4 SI MM NOT_NAMED 1946-01-17 18:00:00 TS -20.2464 63.2756 main 573 552 O____P___OO___ jtwc_sh SH071946 -20.3000 63.2000 -1 -20.0857 63.5026 99 -20.3000 63.2000 TC 65 -20.3000 63.2000 4 7 218
1946014S09069 1946 4 SI MM NOT_NAMED 1946-01-17 21:00:00 TS -20.5176 63.0464 main 542 522 P____P___PP___ SH071946 -20.5574 63.0148 -1 -20.3998 63.1592 99 -20.5574 63.0148 TC 65 -20.5557 62.9969 4 7 220
1946014S09069 1946 4 SI MM NOT_NAMED 1946-01-18 00:00:00 TS -20.7799 62.7972 main 523 495 O____P___OP___ jtwc_sh SH071946 -20.8000 62.8000 -1 -20.7204 62.8077 99 -20.8000 62.8000 TC 65 -20.7990 62.7810 4 7 223
1946014S09069 1946 4 SI MM NOT_NAMED 1946-01-18 03:00:00 TS -21.0449 62.5168 main 495 470 P____P___PP___ SH071946 -21.0423 62.5447 -1 -21.0522 62.4531 99 -21.0423 62.5447 TC 65 -21.0429 62.5248 4 8 227
1946014S09069 1946 4 SI MM NOT_NAMED 1946-01-18 06:00:00 TS -21.3250 62.1750 reunion main 470 439 O____O___OO___ jtwc_sh SH071946 -21.3000 62.2000 -1 -21.4000 62.1000 99 9.90000 -21.3000 62.2000 TC 65 -21.3000 62.2000 4 9 230
1946014S09069 1946 4 SI MM NOT_NAMED 1946-01-18 09:00:00 TS -21.6413 61.7425 main 430 404 P____P___PP___ SH071946 -21.5926 61.7300 -1 -21.7861 61.7377 99 -21.5926 61.7300 TC 65 -21.5941 61.7723 4 11 233
1946014S09069 1946 4 SI MM NOT_NAMED 1946-01-18 12:00:00 TS -21.9721 61.2613 main 408 378 O____P___OP___ jtwc_sh SH071946 -21.9000 61.2000 -1 -22.1877 61.3696 99 -21.9000 61.2000 TC 65 -21.9005 61.2755 4 11 233
1946014S09069 1946 4 SI MM NOT_NAMED 1946-01-18 15:00:00 TS -22.3055 60.7856 main 378 356 P____P___PP___ SH071946 -22.2073 60.6999 -1 -22.6009 61.0020 99 -22.2073 60.6999 TC 65 -22.2065 60.7409 4 11 233
1946014S09069 1946 4 SI MM NOT_NAMED 1946-01-18 18:00:00 TS -22.6304 60.3103 main 356 349 O____P___OO___ jtwc_sh SH071946 -22.5000 60.2000 -1 -23.0215 60.6412 99 -22.5000 60.2000 TC 65 -22.5000 60.2000 4 11 234
1946014S09069 1946 4 SI MM NOT_NAMED 1946-01-18 21:00:00 TS -22.9331 59.8429 main 345 345 P____P___PP___ SH071946 -22.7573 59.6997 -1 -23.4456 60.2939 99 -22.7573 59.6997 TC 50 -22.7720 59.6783 4 10 232
1946014S09069 1946 4 SI MM NOT_NAMED 1946-01-19 00:00:00 TS -23.2734 59.4303 main 358 358 O____P___OP___ jtwc_sh SH071946 -23.0000 59.2000 -1 -23.8693 59.9667 99 -23.0000 59.2000 TC 35 -23.0255 59.1757 4 10 224
1946014S09069 1946 4 SI MM NOT_NAMED 1946-01-19 03:00:00 TS -23.6679 59.0838 main 385 381 P____P___PP___ SH071946 -23.2478 58.7004 -1 -24.2887 59.6665 99 -23.2478 58.7004 TC 35 -23.2663 58.6852 4 10 209
1946014S09069 1946 4 SI MM NOT_NAMED 1946-01-19 06:00:00 TS -24.1857 58.8857 reunion main 431 431 O____O___OO___ jtwc_sh SH071946 -23.5000 58.2000 -1 -24.7000 59.4000 99 9.90000 -23.5000 58.2000 TC 35 -23.5000 58.2000 2 14 177
1946014S09069 1946 4 SI MM NOT_NAMED 1946-01-19 09:00:00 NR -25.1003 59.1724 main 536 536 _____P________ SH071946 -1 -25.1003 59.1724 99 TC 2 13 176
1946014S09069 1946 4 SI MM NOT_NAMED 1946-01-19 12:00:00 NR -25.4903 58.9807 main 571 571 _____P________ -1 -25.4903 58.9807 99 2 8 202
1946014S09069 1946 4 SI MM NOT_NAMED 1946-01-19 15:00:00 NR -25.8716 58.8200 main 597 597 _____P________ -1 -25.8716 58.8200 99 2 8 199
1946014S09069 1946 4 SI MM NOT_NAMED 1946-01-19 18:00:00 NR -26.2458 58.6850 main 621 621 _____P________ -1 -26.2458 58.6850 99 8 197
1946014S09069 1946 4 SI MM NOT_NAMED 1946-01-19 21:00:00 NR -26.6143 58.5708 main 656 656 _____P________ -1 -26.6143 58.5708 99 8 195
1946014S09069 1946 4 SI MM NOT_NAMED 1946-01-20 00:00:00 NR -26.9785 58.4721 main 691 691 _____P________ -1 -26.9785 58.4721 99 7 193
1946014S09069 1946 4 SI MM NOT_NAMED 1946-01-20 03:00:00 NR -27.3400 58.3836 main 717 717 _____P________ -1 -27.3400 58.3836 99 7 192
1946014S09069 1946 4 SI MM NOT_NAMED 1946-01-20 06:00:00 NR -27.7000 58.3000 reunion main 754 _____O________ -1 -27.7000 58.3000 99 9.90000 7 193

IBTrACS Databaseについて

本データベースは、米国NOAAが公開する1842年以降の世界の熱帯低気圧のベストトラックデータアーカイブInternational Best Track Archive for Climate Stewardship (IBTrACS)を、ウェブで閲覧しやすい形式に変換したものです。

最終更新日:2021-12-01